sensor_id;sensor_type;location;lat;lon;timestamp;pressure;altitude;pressure_sealevel;temperature;humidity
36386;BME280;24125;47.482;8.770;2023-02-17T00:00:16;97291.09;;;10.44;55.29
36386;BME280;24125;47.482;8.770;2023-02-17T00:02:54;97288.59;;;10.47;55.09
36386;BME280;24125;47.482;8.770;2023-02-17T00:05:27;97283.59;;;10.46;55.31
36386;BME280;24125;47.482;8.770;2023-02-17T00:08:00;97287.22;;;10.50;55.14
36386;BME280;24125;47.482;8.770;2023-02-17T00:10:35;97283.19;;;10.52;54.41
36386;BME280;24125;47.482;8.770;2023-02-17T00:13:08;97284.78;;;10.53;53.97
36386;BME280;24125;47.482;8.770;2023-02-17T00:15:41;97283.69;;;10.54;54.85
36386;BME280;24125;47.482;8.770;2023-02-17T00:18:14;97287.63;;;10.57;54.57
36386;BME280;24125;47.482;8.770;2023-02-17T00:20:46;97295.34;;;10.58;54.82
36386;BME280;24125;47.482;8.770;2023-02-17T00:23:19;97293.16;;;10.61;54.32
36386;BME280;24125;47.482;8.770;2023-02-17T00:25:54;97296.81;;;10.65;54.40
36386;BME280;24125;47.482;8.770;2023-02-17T00:28:27;97293.84;;;10.66;54.38
36386;BME280;24125;47.482;8.770;2023-02-17T00:31:05;97305.03;;;10.68;54.15
36386;BME280;24125;47.482;8.770;2023-02-17T00:33:38;97297.00;;;10.68;54.44
36386;BME280;24125;47.482;8.770;2023-02-17T00:36:13;97300.47;;;10.69;53.98
36386;BME280;24125;47.482;8.770;2023-02-17T00:38:48;97306.09;;;10.67;54.22
36386;BME280;24125;47.482;8.770;2023-02-17T00:41:23;97306.31;;;10.71;54.04
36386;BME280;24125;47.482;8.770;2023-02-17T00:43:57;97309.28;;;10.69;53.76
36386;BME280;24125;47.482;8.770;2023-02-17T00:46:30;97309.56;;;10.68;54.18
36386;BME280;24125;47.482;8.770;2023-02-17T00:49:03;97305.16;;;10.63;53.94
36386;BME280;24125;47.482;8.770;2023-02-17T00:51:36;97306.81;;;10.59;53.60
36386;BME280;24125;47.482;8.770;2023-02-17T00:54:09;97305.03;;;10.54;53.73
36386;BME280;24125;47.482;8.770;2023-02-17T00:56:43;97304.34;;;10.49;53.80
36386;BME280;24125;47.482;8.770;2023-02-17T00:59:17;97306.09;;;10.40;54.08
36386;BME280;24125;47.482;8.770;2023-02-17T01:01:50;97309.97;;;10.34;53.74
36386;BME280;24125;47.482;8.770;2023-02-17T01:04:23;97301.84;;;10.25;53.81
36386;BME280;24125;47.482;8.770;2023-02-17T01:06:56;97318.53;;;10.17;53.49
36386;BME280;24125;47.482;8.770;2023-02-17T01:09:29;97311.19;;;10.09;53.75
36386;BME280;24125;47.482;8.770;2023-02-17T01:12:03;97323.06;;;10.03;53.86
36386;BME280;24125;47.482;8.770;2023-02-17T01:14:36;97316.81;;;9.94;54.01
36386;BME280;24125;47.482;8.770;2023-02-17T01:17:09;97321.22;;;9.84;53.87
36386;BME280;24125;47.482;8.770;2023-02-17T01:19:42;97318.63;;;9.79;54.21
36386;BME280;24125;47.482;8.770;2023-02-17T01:22:15;97316.13;;;9.69;54.27
36386;BME280;24125;47.482;8.770;2023-02-17T01:24:48;97321.03;;;9.62;54.37
36386;BME280;24125;47.482;8.770;2023-02-17T01:27:22;97319.53;;;9.56;54.31
36386;BME280;24125;47.482;8.770;2023-02-17T01:29:55;97315.38;;;9.50;54.50
36386;BME280;24125;47.482;8.770;2023-02-17T01:32:29;97315.66;;;9.49;55.20
36386;BME280;24125;47.482;8.770;2023-02-17T01:35:01;97312.19;;;9.48;55.24
36386;BME280;24125;47.482;8.770;2023-02-17T01:37:34;97304.22;;;9.48;55.17
36386;BME280;24125;47.482;8.770;2023-02-17T01:40:08;97310.84;;;9.51;55.47
36386;BME280;24125;47.482;8.770;2023-02-17T01:42:42;97313.94;;;9.58;55.48
36386;BME280;24125;47.482;8.770;2023-02-17T01:45:37;97310.09;;;9.64;55.26
36386;BME280;24125;47.482;8.770;2023-02-17T01:48:13;97307.31;;;9.69;55.31
36386;BME280;24125;47.482;8.770;2023-02-17T01:50:52;97299.25;;;9.74;55.35
36386;BME280;24125;47.482;8.770;2023-02-17T01:53:29;97301.53;;;9.80;55.50
36386;BME280;24125;47.482;8.770;2023-02-17T01:56:06;97293.94;;;9.88;55.59
36386;BME280;24125;47.482;8.770;2023-02-17T01:58:43;97295.94;;;9.96;55.60
36386;BME280;24125;47.482;8.770;2023-02-17T02:01:17;97296.38;;;10.03;55.54
36386;BME280;24125;47.482;8.770;2023-02-17T02:03:50;97304.50;;;10.11;55.42
36386;BME280;24125;47.482;8.770;2023-02-17T02:06:26;97295.34;;;10.17;55.26
36386;BME280;24125;47.482;8.770;2023-02-17T02:09:02;97295.44;;;10.26;55.31
36386;BME280;24125;47.482;8.770;2023-02-17T02:11:36;97286.06;;;10.29;54.68
36386;BME280;24125;47.482;8.770;2023-02-17T02:14:11;97281.91;;;10.36;54.57
36386;BME280;24125;47.482;8.770;2023-02-17T02:16:50;97272.50;;;10.39;54.70
36386;BME280;24125;47.482;8.770;2023-02-17T02:22:42;97275.56;;;10.46;54.73
36386;BME280;24125;47.482;8.770;2023-02-17T02:25:32;97277.34;;;10.50;54.80
36386;BME280;24125;47.482;8.770;2023-02-17T02:28:22;97280.50;;;10.52;54.67
36386;BME280;24125;47.482;8.770;2023-02-17T02:31:09;97289.03;;;10.54;54.47
36386;BME280;24125;47.482;8.770;2023-02-17T02:33:55;97277.22;;;10.55;54.69
36386;BME280;24125;47.482;8.770;2023-02-17T02:36:31;97284.94;;;10.57;54.95
36386;BME280;24125;47.482;8.770;2023-02-17T02:39:08;97282.78;;;10.59;54.31
36386;BME280;24125;47.482;8.770;2023-02-17T02:41:44;97278.22;;;10.59;54.42
36386;BME280;24125;47.482;8.770;2023-02-17T02:44:20;97280.91;;;10.59;54.27
36386;BME280;24125;47.482;8.770;2023-02-17T02:46:57;97271.81;;;10.61;54.21
36386;BME280;24125;47.482;8.770;2023-02-17T02:49:33;97278.44;;;10.63;54.56
36386;BME280;24125;47.482;8.770;2023-02-17T02:52:13;97274.34;;;10.66;54.30
36386;BME280;24125;47.482;8.770;2023-02-17T02:54:51;97271.69;;;10.66;54.44
36386;BME280;24125;47.482;8.770;2023-02-17T02:57:37;97263.38;;;10.67;53.85
36386;BME280;24125;47.482;8.770;2023-02-17T03:00:20;97272.69;;;10.70;54.12
36386;BME280;24125;47.482;8.770;2023-02-17T03:02:59;97270.50;;;10.72;53.94
36386;BME280;24125;47.482;8.770;2023-02-17T03:05:42;97271.47;;;10.76;53.46
36386;BME280;24125;47.482;8.770;2023-02-17T03:08:27;97269.47;;;10.81;54.00
36386;BME280;24125;47.482;8.770;2023-02-17T03:11:03;97268.91;;;10.84;53.98
36386;BME280;24125;47.482;8.770;2023-02-17T03:13:36;97265.00;;;10.90;53.75
36386;BME280;24125;47.482;8.770;2023-02-17T03:16:10;97265.72;;;10.96;53.57
36386;BME280;24125;47.482;8.770;2023-02-17T03:18:45;97259.94;;;11.03;53.25
36386;BME280;24125;47.482;8.770;2023-02-17T03:21:20;97262.50;;;11.08;53.60
36386;BME280;24125;47.482;8.770;2023-02-17T03:23:53;97257.56;;;11.15;53.29
36386;BME280;24125;47.482;8.770;2023-02-17T03:26:26;97255.53;;;11.20;53.19
36386;BME280;24125;47.482;8.770;2023-02-17T03:28:59;97253.81;;;11.24;52.69
36386;BME280;24125;47.482;8.770;2023-02-17T03:31:33;97268.06;;;11.33;52.51
36386;BME280;24125;47.482;8.770;2023-02-17T03:34:07;97261.00;;;11.38;52.76
36386;BME280;24125;47.482;8.770;2023-02-17T03:36:41;97258.69;;;11.45;52.64
36386;BME280;24125;47.482;8.770;2023-02-17T03:39:14;97262.03;;;11.50;53.08
36386;BME280;24125;47.482;8.770;2023-02-17T03:41:47;97262.44;;;11.57;52.19
36386;BME280;24125;47.482;8.770;2023-02-17T03:44:22;97269.22;;;11.63;52.62
36386;BME280;24125;47.482;8.770;2023-02-17T03:46:55;97266.41;;;11.68;51.95
36386;BME280;24125;47.482;8.770;2023-02-17T03:49:28;97258.28;;;11.73;52.01
36386;BME280;24125;47.482;8.770;2023-02-17T03:52:02;97266.19;;;11.79;52.40
36386;BME280;24125;47.482;8.770;2023-02-17T03:54:35;97262.31;;;11.85;52.21
36386;BME280;24125;47.482;8.770;2023-02-17T03:57:08;97256.63;;;11.86;51.39
36386;BME280;24125;47.482;8.770;2023-02-17T03:59:41;97266.44;;;11.91;51.67
36386;BME280;24125;47.482;8.770;2023-02-17T04:02:14;97266.59;;;11.94;51.44
36386;BME280;24125;47.482;8.770;2023-02-17T04:04:47;97263.00;;;11.99;51.94
36386;BME280;24125;47.482;8.770;2023-02-17T04:07:22;97263.50;;;12.01;51.63
36386;BME280;24125;47.482;8.770;2023-02-17T04:09:55;97264.44;;;12.05;51.94
36386;BME280;24125;47.482;8.770;2023-02-17T04:12:28;97266.03;;;12.06;51.44
36386;BME280;24125;47.482;8.770;2023-02-17T04:15:01;97270.78;;;12.09;51.24
36386;BME280;24125;47.482;8.770;2023-02-17T04:17:35;97273.91;;;12.11;51.26
36386;BME280;24125;47.482;8.770;2023-02-17T04:20:08;97281.03;;;12.16;51.80
36386;BME280;24125;47.482;8.770;2023-02-17T04:22:43;97279.63;;;12.18;51.14
36386;BME280;24125;47.482;8.770;2023-02-17T04:25:17;97272.41;;;12.19;50.98
36386;BME280;24125;47.482;8.770;2023-02-17T04:27:50;97276.31;;;12.21;51.07
36386;BME280;24125;47.482;8.770;2023-02-17T04:30:22;97274.13;;;12.23;51.49
36386;BME280;24125;47.482;8.770;2023-02-17T04:32:56;97279.97;;;12.25;50.78
36386;BME280;24125;47.482;8.770;2023-02-17T04:35:29;97271.63;;;12.27;51.40
36386;BME280;24125;47.482;8.770;2023-02-17T04:38:04;97279.81;;;12.30;50.90
36386;BME280;24125;47.482;8.770;2023-02-17T04:40:39;97278.72;;;12.31;51.76
36386;BME280;24125;47.482;8.770;2023-02-17T04:43:12;97266.94;;;12.32;50.64
36386;BME280;24125;47.482;8.770;2023-02-17T04:45:45;97273.88;;;12.33;50.75
36386;BME280;24125;47.482;8.770;2023-02-17T04:48:18;97274.34;;;12.35;50.74
36386;BME280;24125;47.482;8.770;2023-02-17T04:50:51;97273.56;;;12.35;51.03
36386;BME280;24125;47.482;8.770;2023-02-17T04:53:26;97276.69;;;12.37;50.89
36386;BME280;24125;47.482;8.770;2023-02-17T04:55:59;97277.81;;;12.36;51.14
36386;BME280;24125;47.482;8.770;2023-02-17T04:58:32;97278.63;;;12.36;51.12
36386;BME280;24125;47.482;8.770;2023-02-17T05:01:05;97283.63;;;12.38;50.89
36386;BME280;24125;47.482;8.770;2023-02-17T05:03:38;97273.25;;;12.36;51.60
36386;BME280;24125;47.482;8.770;2023-02-17T05:06:11;97264.09;;;12.37;51.11
36386;BME280;24125;47.482;8.770;2023-02-17T05:08:45;97267.25;;;12.39;50.31
36386;BME280;24125;47.482;8.770;2023-02-17T05:11:21;97265.69;;;12.38;50.96
36386;BME280;24125;47.482;8.770;2023-02-17T05:13:54;97269.16;;;12.39;51.31
36386;BME280;24125;47.482;8.770;2023-02-17T05:16:27;97266.78;;;12.37;50.70
36386;BME280;24125;47.482;8.770;2023-02-17T05:19:00;97272.91;;;12.38;51.08
36386;BME280;24125;47.482;8.770;2023-02-17T05:21:32;97262.69;;;12.40;50.66
36386;BME280;24125;47.482;8.770;2023-02-17T05:24:07;97259.72;;;12.41;50.93
36386;BME280;24125;47.482;8.770;2023-02-17T05:26:40;97261.91;;;12.39;50.50
36386;BME280;24125;47.482;8.770;2023-02-17T05:29:13;97261.28;;;12.42;50.76
36386;BME280;24125;47.482;8.770;2023-02-17T05:31:46;97259.09;;;12.44;51.21
36386;BME280;24125;47.482;8.770;2023-02-17T05:34:19;97254.19;;;12.46;50.72
36386;BME280;24125;47.482;8.770;2023-02-17T05:36:52;97258.94;;;12.50;50.87
36386;BME280;24125;47.482;8.770;2023-02-17T05:39:26;97254.88;;;12.52;51.09
36386;BME280;24125;47.482;8.770;2023-02-17T05:41:59;97253.44;;;12.55;50.92
36386;BME280;24125;47.482;8.770;2023-02-17T05:44:32;97251.25;;;12.57;50.92
36386;BME280;24125;47.482;8.770;2023-02-17T05:47:05;97255.69;;;12.61;50.46
36386;BME280;24125;47.482;8.770;2023-02-17T05:49:38;97250.78;;;12.63;50.41
36386;BME280;24125;47.482;8.770;2023-02-17T05:52:11;97251.25;;;12.65;50.69
36386;BME280;24125;47.482;8.770;2023-02-17T05:54:45;97262.16;;;12.69;50.08
36386;BME280;24125;47.482;8.770;2023-02-17T05:57:18;97262.94;;;12.69;50.89
36386;BME280;24125;47.482;8.770;2023-02-17T05:59:51;97259.63;;;12.72;49.89
36386;BME280;24125;47.482;8.770;2023-02-17T06:02:24;97260.91;;;12.75;50.14
36386;BME280;24125;47.482;8.770;2023-02-17T06:04:57;97263.28;;;12.76;50.86
36386;BME280;24125;47.482;8.770;2023-02-17T06:07:31;97263.41;;;12.80;50.49
36386;BME280;24125;47.482;8.770;2023-02-17T06:10:06;97261.22;;;12.82;50.21
36386;BME280;24125;47.482;8.770;2023-02-17T06:12:40;97259.63;;;12.81;50.55
36386;BME280;24125;47.482;8.770;2023-02-17T06:15:13;97253.97;;;12.82;50.06
36386;BME280;24125;47.482;8.770;2023-02-17T06:17:46;97260.91;;;12.83;50.27
36386;BME280;24125;47.482;8.770;2023-02-17T06:20:19;97264.88;;;12.86;49.84
36386;BME280;24125;47.482;8.770;2023-02-17T06:22:52;97257.63;;;12.87;50.09
36386;BME280;24125;47.482;8.770;2023-02-17T06:25:26;97271.47;;;12.89;50.68
36386;BME280;24125;47.482;8.770;2023-02-17T06:27:59;97261.88;;;12.88;50.01
36386;BME280;24125;47.482;8.770;2023-02-17T06:30:32;97260.75;;;12.89;50.00
36386;BME280;24125;47.482;8.770;2023-02-17T06:33:05;97267.69;;;12.90;50.65
36386;BME280;24125;47.482;8.770;2023-02-17T06:35:38;97268.03;;;12.88;50.32
36386;BME280;24125;47.482;8.770;2023-02-17T06:38:11;97272.59;;;12.88;50.56
36386;BME280;24125;47.482;8.770;2023-02-17T06:40:46;97276.84;;;12.89;50.31
36386;BME280;24125;47.482;8.770;2023-02-17T06:43:19;97282.19;;;12.89;50.69
36386;BME280;24125;47.482;8.770;2023-02-17T06:45:52;97283.63;;;12.86;49.93
36386;BME280;24125;47.482;8.770;2023-02-17T06:48:25;97287.91;;;12.87;50.32
36386;BME280;24125;47.482;8.770;2023-02-17T06:50:58;97293.25;;;12.87;50.90
36386;BME280;24125;47.482;8.770;2023-02-17T06:53:31;97284.41;;;12.87;50.60
36386;BME280;24125;47.482;8.770;2023-02-17T06:56:06;97292.16;;;12.88;50.43
36386;BME280;24125;47.482;8.770;2023-02-17T06:58:39;97290.56;;;12.87;51.33
36386;BME280;24125;47.482;8.770;2023-02-17T07:01:15;97298.75;;;12.91;51.02
36386;BME280;24125;47.482;8.770;2023-02-17T07:03:49;97301.75;;;12.89;50.72
36386;BME280;24125;47.482;8.770;2023-02-17T07:06:23;97304.13;;;12.91;50.89
36386;BME280;24125;47.482;8.770;2023-02-17T07:08:56;97301.94;;;12.93;50.69
36386;BME280;24125;47.482;8.770;2023-02-17T07:11:30;97308.56;;;12.95;50.53
36386;BME280;24125;47.482;8.770;2023-02-17T07:14:03;97316.28;;;12.97;50.56
36386;BME280;24125;47.482;8.770;2023-02-17T07:16:37;97309.50;;;12.99;50.45
36386;BME280;24125;47.482;8.770;2023-02-17T07:19:10;97312.06;;;13.04;50.08
36386;BME280;24125;47.482;8.770;2023-02-17T07:21:44;97306.84;;;13.08;50.20
36386;BME280;24125;47.482;8.770;2023-02-17T07:24:17;97305.63;;;13.14;50.29
36386;BME280;24125;47.482;8.770;2023-02-17T07:26:51;97305.16;;;13.20;50.22
36386;BME280;24125;47.482;8.770;2023-02-17T07:29:26;97307.66;;;13.26;50.04
36386;BME280;24125;47.482;8.770;2023-02-17T07:31:59;97309.88;;;13.32;50.36
36386;BME280;24125;47.482;8.770;2023-02-17T07:34:33;97309.13;;;13.40;50.02
36386;BME280;24125;47.482;8.770;2023-02-17T07:37:06;97310.22;;;13.48;50.11
36386;BME280;24125;47.482;8.770;2023-02-17T07:39:39;97312.91;;;13.56;50.30
36386;BME280;24125;47.482;8.770;2023-02-17T07:42:14;97311.78;;;13.66;50.03
36386;BME280;24125;47.482;8.770;2023-02-17T07:44:47;97306.72;;;13.73;49.75
36386;BME280;24125;47.482;8.770;2023-02-17T07:47:20;97321.72;;;13.83;49.50
36386;BME280;24125;47.482;8.770;2023-02-17T07:49:53;97306.69;;;13.90;49.40
36386;BME280;24125;47.482;8.770;2023-02-17T07:52:26;97315.53;;;14.00;49.49
36386;BME280;24125;47.482;8.770;2023-02-17T07:54:59;97322.78;;;14.08;49.27
36386;BME280;24125;47.482;8.770;2023-02-17T07:57:33;97313.13;;;14.15;49.00
36386;BME280;24125;47.482;8.770;2023-02-17T08:00:07;97320.69;;;14.22;49.06
36386;BME280;24125;47.482;8.770;2023-02-17T08:02:41;97320.19;;;14.28;49.12
36386;BME280;24125;47.482;8.770;2023-02-17T08:05:14;97317.00;;;14.35;48.90
36386;BME280;24125;47.482;8.770;2023-02-17T08:07:47;97311.97;;;14.42;48.71
36386;BME280;24125;47.482;8.770;2023-02-17T08:10:40;97323.47;;;14.51;48.89
36386;BME280;24125;47.482;8.770;2023-02-17T08:13:32;97328.81;;;14.60;48.74
36386;BME280;24125;47.482;8.770;2023-02-17T08:16:05;97331.78;;;14.67;48.80
36386;BME280;24125;47.482;8.770;2023-02-17T08:18:38;97338.22;;;14.75;48.54
36386;BME280;24125;47.482;8.770;2023-02-17T08:21:11;97337.38;;;14.83;48.29
36386;BME280;24125;47.482;8.770;2023-02-17T08:23:44;97343.81;;;14.90;48.30
36386;BME280;24125;47.482;8.770;2023-02-17T08:26:17;97337.94;;;14.97;48.16
36386;BME280;24125;47.482;8.770;2023-02-17T08:28:52;97347.53;;;15.06;47.99
36386;BME280;24125;47.482;8.770;2023-02-17T08:31:27;97357.00;;;15.13;47.96
36386;BME280;24125;47.482;8.770;2023-02-17T08:34:05;97355.38;;;15.20;47.70
36386;BME280;24125;47.482;8.770;2023-02-17T08:36:38;97364.34;;;15.24;47.92
36386;BME280;24125;47.482;8.770;2023-02-17T08:39:15;97361.13;;;15.31;47.64
36386;BME280;24125;47.482;8.770;2023-02-17T08:41:48;97362.41;;;15.33;47.87
36386;BME280;24125;47.482;8.770;2023-02-17T08:44:23;97370.28;;;15.38;47.89
36386;BME280;24125;47.482;8.770;2023-02-17T08:46:56;97371.66;;;15.44;48.02
36386;BME280;24125;47.482;8.770;2023-02-17T08:49:29;97372.25;;;15.50;47.69
36386;BME280;24125;47.482;8.770;2023-02-17T08:52:03;97379.41;;;15.55;47.62
36386;BME280;24125;47.482;8.770;2023-02-17T08:54:36;97377.59;;;15.59;47.74
36386;BME280;24125;47.482;8.770;2023-02-17T08:57:10;97387.09;;;15.65;47.79
36386;BME280;24125;47.482;8.770;2023-02-17T08:59:44;97390.34;;;15.70;47.65
36386;BME280;24125;47.482;8.770;2023-02-17T09:02:18;97387.00;;;15.73;47.70
36386;BME280;24125;47.482;8.770;2023-02-17T09:04:51;97384.91;;;15.79;47.71
36386;BME280;24125;47.482;8.770;2023-02-17T09:07:25;97385.47;;;15.84;47.36
36386;BME280;24125;47.482;8.770;2023-02-17T09:09:59;97394.59;;;15.92;47.85
36386;BME280;24125;47.482;8.770;2023-02-17T09:12:32;97391.72;;;15.97;47.68
36386;BME280;24125;47.482;8.770;2023-02-17T09:15:07;97393.22;;;16.07;47.56
36386;BME280;24125;47.482;8.770;2023-02-17T09:17:40;97392.34;;;16.15;47.71
36386;BME280;24125;47.482;8.770;2023-02-17T09:20:14;97391.94;;;16.25;47.77
36386;BME280;24125;47.482;8.770;2023-02-17T09:22:55;97392.75;;;16.38;47.60
36386;BME280;24125;47.482;8.770;2023-02-17T09:25:28;97393.22;;;16.52;47.76
36386;BME280;24125;47.482;8.770;2023-02-17T09:28:01;97389.16;;;16.67;47.35
36386;BME280;24125;47.482;8.770;2023-02-17T09:30:36;97393.09;;;16.81;46.93
36386;BME280;24125;47.482;8.770;2023-02-17T09:33:09;97396.47;;;16.90;47.17
36386;BME280;24125;47.482;8.770;2023-02-17T09:35:42;97395.59;;;16.98;46.76
36386;BME280;24125;47.482;8.770;2023-02-17T09:38:15;97390.84;;;17.08;46.63
36386;BME280;24125;47.482;8.770;2023-02-17T09:40:49;97399.50;;;17.13;46.41
36386;BME280;24125;47.482;8.770;2023-02-17T09:43:25;97401.66;;;17.20;45.85
36386;BME280;24125;47.482;8.770;2023-02-17T09:46:06;97403.00;;;17.26;45.83
36386;BME280;24125;47.482;8.770;2023-02-17T09:48:41;97409.97;;;17.27;45.85
36386;BME280;24125;47.482;8.770;2023-02-17T09:51:20;97419.41;;;17.33;45.62
36386;BME280;24125;47.482;8.770;2023-02-17T09:54:02;97411.44;;;17.37;45.60
36386;BME280;24125;47.482;8.770;2023-02-17T09:56:36;97418.84;;;17.40;47.29
36386;BME280;24125;47.482;8.770;2023-02-17T09:59:14;97420.19;;;17.46;45.74
36386;BME280;24125;47.482;8.770;2023-02-17T10:01:50;97412.19;;;17.49;45.83
36386;BME280;24125;47.482;8.770;2023-02-17T10:04:27;97409.63;;;17.53;46.07
36386;BME280;24125;47.482;8.770;2023-02-17T10:07:07;97403.63;;;17.59;45.97
36386;BME280;24125;47.482;8.770;2023-02-17T10:09:46;97399.16;;;17.63;45.96
36386;BME280;24125;47.482;8.770;2023-02-17T10:12:25;97403.53;;;17.68;45.83
36386;BME280;24125;47.482;8.770;2023-02-17T10:15:03;97409.47;;;17.73;45.55
36386;BME280;24125;47.482;8.770;2023-02-17T10:17:43;97416.56;;;17.78;45.17
36386;BME280;24125;47.482;8.770;2023-02-17T10:20:21;97406.56;;;17.79;45.41
36386;BME280;24125;47.482;8.770;2023-02-17T10:22:59;97408.81;;;17.77;45.18
36386;BME280;24125;47.482;8.770;2023-02-17T10:25:47;97404.19;;;17.77;45.08
36386;BME280;24125;47.482;8.770;2023-02-17T10:28:36;97414.09;;;17.73;45.28
36386;BME280;24125;47.482;8.770;2023-02-17T10:31:12;97415.25;;;17.72;45.37
36386;BME280;24125;47.482;8.770;2023-02-17T10:33:52;97417.94;;;17.72;45.43
36386;BME280;24125;47.482;8.770;2023-02-17T10:36:35;97409.84;;;17.72;45.71
36386;BME280;24125;47.482;8.770;2023-02-17T10:39:25;97419.84;;;17.71;45.70
36386;BME280;24125;47.482;8.770;2023-02-17T10:42:01;97413.75;;;17.75;46.04
36386;BME280;24125;47.482;8.770;2023-02-17T10:44:36;97419.28;;;17.78;45.90
36386;BME280;24125;47.482;8.770;2023-02-17T10:47:09;97409.00;;;17.84;46.14
36386;BME280;24125;47.482;8.770;2023-02-17T10:49:46;97410.78;;;17.92;45.97
36386;BME280;24125;47.482;8.770;2023-02-17T10:52:22;97407.16;;;18.00;46.07
36386;BME280;24125;47.482;8.770;2023-02-17T10:54:59;97403.16;;;18.09;45.71
36386;BME280;24125;47.482;8.770;2023-02-17T10:57:48;97401.44;;;18.17;47.37
36386;BME280;24125;47.482;8.770;2023-02-17T11:00:23;97399.84;;;18.28;46.30
36386;BME280;24125;47.482;8.770;2023-02-17T11:02:57;97399.34;;;18.38;46.26
36386;BME280;24125;47.482;8.770;2023-02-17T11:05:33;97399.97;;;18.47;45.99
36386;BME280;24125;47.482;8.770;2023-02-17T11:08:22;97389.00;;;18.56;45.68
36386;BME280;24125;47.482;8.770;2023-02-17T11:11:03;97380.63;;;18.61;45.33
36386;BME280;24125;47.482;8.770;2023-02-17T11:13:41;97375.78;;;18.67;45.58
36386;BME280;24125;47.482;8.770;2023-02-17T11:16:21;97375.50;;;18.72;45.51
36386;BME280;24125;47.482;8.770;2023-02-17T11:18:57;97375.16;;;18.73;45.78
36386;BME280;24125;47.482;8.770;2023-02-17T11:21:32;97367.91;;;18.77;45.62
36386;BME280;24125;47.482;8.770;2023-02-17T11:24:05;97366.44;;;18.80;45.39
36386;BME280;24125;47.482;8.770;2023-02-17T11:26:38;97361.00;;;18.80;45.58
36386;BME280;24125;47.482;8.770;2023-02-17T11:29:15;97363.81;;;18.83;45.20
36386;BME280;24125;47.482;8.770;2023-02-17T11:31:53;97371.59;;;18.85;45.28
36386;BME280;24125;47.482;8.770;2023-02-17T11:34:28;97361.13;;;18.83;45.20
36386;BME280;24125;47.482;8.770;2023-02-17T11:37:19;97351.50;;;18.86;45.41
36386;BME280;24125;47.482;8.770;2023-02-17T11:39:54;97352.28;;;18.87;45.22
36386;BME280;24125;47.482;8.770;2023-02-17T11:42:29;97351.06;;;18.84;45.65
36386;BME280;24125;47.482;8.770;2023-02-17T11:45:15;97353.84;;;18.88;45.45
36386;BME280;24125;47.482;8.770;2023-02-17T11:48:01;97343.81;;;18.88;45.11
36386;BME280;24125;47.482;8.770;2023-02-17T11:50:41;97338.06;;;18.90;45.34
36386;BME280;24125;47.482;8.770;2023-02-17T11:53:25;97335.44;;;18.93;45.55
36386;BME280;24125;47.482;8.770;2023-02-17T11:56:12;97327.41;;;18.97;45.42
36386;BME280;24125;47.482;8.770;2023-02-17T11:59:07;97335.25;;;19.02;45.33
36386;BME280;24125;47.482;8.770;2023-02-17T12:02:17;97336.91;;;19.06;45.37
36386;BME280;24125;47.482;8.770;2023-02-17T12:05:05;97332.38;;;19.10;44.91
36386;BME280;24125;47.482;8.770;2023-02-17T12:07:54;97335.94;;;19.14;45.16
36386;BME280;24125;47.482;8.770;2023-02-17T12:10:43;97330.94;;;19.16;45.13
36386;BME280;24125;47.482;8.770;2023-02-17T12:13:27;97327.47;;;19.16;44.93
36386;BME280;24125;47.482;8.770;2023-02-17T12:16:25;97319.00;;;19.17;45.23
36386;BME280;24125;47.482;8.770;2023-02-17T12:19:03;97321.69;;;19.17;45.01
36386;BME280;24125;47.482;8.770;2023-02-17T12:21:56;97320.91;;;19.17;44.76
36386;BME280;24125;47.482;8.770;2023-02-17T12:24:48;97325.19;;;19.18;45.00
36386;BME280;24125;47.482;8.770;2023-02-17T12:27:37;97326.75;;;19.19;45.09
36386;BME280;24125;47.482;8.770;2023-02-17T12:30:22;97320.19;;;19.20;45.57
36386;BME280;24125;47.482;8.770;2023-02-17T12:33:11;97321.41;;;19.22;45.00
36386;BME280;24125;47.482;8.770;2023-02-17T12:35:53;97320.72;;;19.26;45.24
36386;BME280;24125;47.482;8.770;2023-02-17T12:38:30;97322.69;;;19.29;45.14
36386;BME280;24125;47.482;8.770;2023-02-17T12:41:07;97324.78;;;19.35;44.97
36386;BME280;24125;47.482;8.770;2023-02-17T12:43:45;97320.94;;;19.36;44.99
36386;BME280;24125;47.482;8.770;2023-02-17T12:46:23;97314.03;;;19.39;45.34
36386;BME280;24125;47.482;8.770;2023-02-17T12:49:02;97316.72;;;19.39;45.51
36386;BME280;24125;47.482;8.770;2023-02-17T12:51:40;97315.16;;;19.38;45.58
36386;BME280;24125;47.482;8.770;2023-02-17T12:54:21;97312.03;;;19.36;45.85
36386;BME280;24125;47.482;8.770;2023-02-17T12:57:05;97309.34;;;19.36;45.86
36386;BME280;24125;47.482;8.770;2023-02-17T12:59:42;97309.34;;;19.36;46.33
36386;BME280;24125;47.482;8.770;2023-02-17T13:02:17;97313.22;;;19.38;46.34
36386;BME280;24125;47.482;8.770;2023-02-17T13:04:51;97312.97;;;19.43;45.77
36386;BME280;24125;47.482;8.770;2023-02-17T13:07:36;97309.66;;;19.50;45.79
36386;BME280;24125;47.482;8.770;2023-02-17T13:10:26;97317.88;;;19.53;45.73
36386;BME280;24125;47.482;8.770;2023-02-17T13:13:04;97309.00;;;19.56;45.99
36386;BME280;24125;47.482;8.770;2023-02-17T13:15:41;97305.59;;;19.59;45.80
36386;BME280;24125;47.482;8.770;2023-02-17T13:18:27;97312.63;;;19.64;45.72
36386;BME280;24125;47.482;8.770;2023-02-17T13:21:03;97313.44;;;19.65;45.49
36386;BME280;24125;47.482;8.770;2023-02-17T13:23:58;97305.38;;;19.68;45.21
36386;BME280;24125;47.482;8.770;2023-02-17T13:26:32;97305.72;;;19.67;45.45
36386;BME280;24125;47.482;8.770;2023-02-17T13:29:19;97308.53;;;19.70;45.45
36386;BME280;24125;47.482;8.770;2023-02-17T13:31:56;97304.25;;;19.69;45.57
36386;BME280;24125;47.482;8.770;2023-02-17T13:34:33;97296.91;;;19.70;45.44
36386;BME280;24125;47.482;8.770;2023-02-17T13:37:23;97299.25;;;19.71;45.93
36386;BME280;24125;47.482;8.770;2023-02-17T13:39:59;97299.63;;;19.70;45.61
36386;BME280;24125;47.482;8.770;2023-02-17T13:42:35;97299.25;;;19.71;45.46
36386;BME280;24125;47.482;8.770;2023-02-17T13:45:23;97304.31;;;19.73;45.52
36386;BME280;24125;47.482;8.770;2023-02-17T13:48:00;97301.19;;;19.71;45.68
36386;BME280;24125;47.482;8.770;2023-02-17T13:50:44;97299.63;;;19.70;45.80